sensor_id;sensor_type;location;lat;lon;timestamp;P1;durP1;ratioP1;P2;durP2;ratioP2
76708;SDS011;65638;44.498;0.166;2023-11-19T00:00:05;36.30;;;18.03;;
76708;SDS011;65638;44.498;0.166;2023-11-19T00:05:37;34.27;;;17.30;;
76708;SDS011;65638;44.498;0.166;2023-11-19T00:11:11;39.00;;;20.20;;
76708;SDS011;65638;44.498;0.166;2023-11-19T00:16:42;31.03;;;15.00;;
76708;SDS011;65638;44.498;0.166;2023-11-19T00:22:16;28.30;;;15.07;;
76708;SDS011;65638;44.498;0.166;2023-11-19T00:27:51;23.47;;;13.17;;
76708;SDS011;65638;44.498;0.166;2023-11-19T00:33:23;24.20;;;10.90;;
76708;SDS011;65638;44.498;0.166;2023-11-19T00:38:56;17.10;;;9.53;;
76708;SDS011;65638;44.498;0.166;2023-11-19T00:44:28;19.60;;;9.47;;
76708;SDS011;65638;44.498;0.166;2023-11-19T00:50:01;18.77;;;8.57;;
76708;SDS011;65638;44.498;0.166;2023-11-19T00:55:34;17.13;;;7.77;;
76708;SDS011;65638;44.498;0.166;2023-11-19T01:01:06;14.53;;;7.30;;
76708;SDS011;65638;44.498;0.166;2023-11-19T01:06:39;18.53;;;8.40;;
76708;SDS011;65638;44.498;0.166;2023-11-19T01:12:11;16.00;;;7.57;;
76708;SDS011;65638;44.498;0.166;2023-11-19T01:17:44;16.53;;;8.43;;
76708;SDS011;65638;44.498;0.166;2023-11-19T01:23:16;16.27;;;8.33;;
76708;SDS011;65638;44.498;0.166;2023-11-19T01:28:49;13.40;;;6.73;;
76708;SDS011;65638;44.498;0.166;2023-11-19T01:34:20;13.53;;;6.57;;
76708;SDS011;65638;44.498;0.166;2023-11-19T01:39:53;12.53;;;5.27;;
76708;SDS011;65638;44.498;0.166;2023-11-19T01:45:27;11.10;;;5.73;;
76708;SDS011;65638;44.498;0.166;2023-11-19T01:50:58;10.83;;;4.97;;
76708;SDS011;65638;44.498;0.166;2023-11-19T01:56:31;13.80;;;5.03;;
76708;SDS011;65638;44.498;0.166;2023-11-19T02:02:02;10.37;;;5.23;;
76708;SDS011;65638;44.498;0.166;2023-11-19T02:07:36;10.90;;;5.63;;
76708;SDS011;65638;44.498;0.166;2023-11-19T02:13:10;11.50;;;6.17;;
76708;SDS011;65638;44.498;0.166;2023-11-19T02:18:41;12.37;;;5.60;;
76708;SDS011;65638;44.498;0.166;2023-11-19T02:24:14;13.70;;;5.80;;
76708;SDS011;65638;44.498;0.166;2023-11-19T02:29:46;12.80;;;5.07;;
76708;SDS011;65638;44.498;0.166;2023-11-19T02:35:18;11.73;;;5.70;;
76708;SDS011;65638;44.498;0.166;2023-11-19T02:40:51;11.90;;;5.67;;
76708;SDS011;65638;44.498;0.166;2023-11-19T02:46:23;14.33;;;6.23;;
76708;SDS011;65638;44.498;0.166;2023-11-19T02:51:56;15.50;;;5.83;;
76708;SDS011;65638;44.498;0.166;2023-11-19T02:57:30;15.37;;;7.07;;
76708;SDS011;65638;44.498;0.166;2023-11-19T03:03:05;11.10;;;6.07;;
76708;SDS011;65638;44.498;0.166;2023-11-19T03:08:35;12.50;;;5.60;;
76708;SDS011;65638;44.498;0.166;2023-11-19T03:14:08;13.67;;;7.47;;
76708;SDS011;65638;44.498;0.166;2023-11-19T03:19:41;17.70;;;7.80;;
76708;SDS011;65638;44.498;0.166;2023-11-19T03:25:14;14.23;;;7.70;;
76708;SDS011;65638;44.498;0.166;2023-11-19T03:30:46;15.13;;;7.73;;
76708;SDS011;65638;44.498;0.166;2023-11-19T03:36:18;13.73;;;7.70;;
76708;SDS011;65638;44.498;0.166;2023-11-19T03:41:51;14.07;;;7.17;;
76708;SDS011;65638;44.498;0.166;2023-11-19T03:47:23;11.30;;;6.27;;
76708;SDS011;65638;44.498;0.166;2023-11-19T03:52:56;11.90;;;6.30;;
76708;SDS011;65638;44.498;0.166;2023-11-19T03:58:28;11.47;;;6.13;;
76708;SDS011;65638;44.498;0.166;2023-11-19T04:04:02;11.27;;;5.83;;
76708;SDS011;65638;44.498;0.166;2023-11-19T04:09:34;11.37;;;6.37;;
76708;SDS011;65638;44.498;0.166;2023-11-19T04:15:07;12.47;;;5.80;;
76708;SDS011;65638;44.498;0.166;2023-11-19T04:20:40;11.57;;;6.57;;
76708;SDS011;65638;44.498;0.166;2023-11-19T04:26:13;11.10;;;5.77;;
76708;SDS011;65638;44.498;0.166;2023-11-19T04:31:46;12.63;;;7.10;;
76708;SDS011;65638;44.498;0.166;2023-11-19T04:37:17;10.87;;;5.90;;
76708;SDS011;65638;44.498;0.166;2023-11-19T04:42:50;37.17;;;8.07;;
76708;SDS011;65638;44.498;0.166;2023-11-19T04:48:22;18.30;;;6.93;;
76708;SDS011;65638;44.498;0.166;2023-11-19T04:53:54;25.77;;;9.40;;
76708;SDS011;65638;44.498;0.166;2023-11-19T04:59:28;22.50;;;7.57;;
76708;SDS011;65638;44.498;0.166;2023-11-19T05:04:59;17.00;;;6.47;;
76708;SDS011;65638;44.498;0.166;2023-11-19T05:10:32;13.87;;;6.73;;
76708;SDS011;65638;44.498;0.166;2023-11-19T05:16:05;24.53;;;6.47;;
76708;SDS011;65638;44.498;0.166;2023-11-19T05:21:37;12.83;;;6.50;;
76708;SDS011;65638;44.498;0.166;2023-11-19T05:27:11;13.27;;;5.73;;
76708;SDS011;65638;44.498;0.166;2023-11-19T05:32:43;11.33;;;5.70;;
76708;SDS011;65638;44.498;0.166;2023-11-19T05:38:15;11.40;;;5.50;;
76708;SDS011;65638;44.498;0.166;2023-11-19T05:43:48;12.40;;;7.30;;
76708;SDS011;65638;44.498;0.166;2023-11-19T05:49:20;9.37;;;5.73;;
76708;SDS011;65638;44.498;0.166;2023-11-19T05:54:53;9.60;;;5.30;;
76708;SDS011;65638;44.498;0.166;2023-11-19T06:00:28;11.10;;;5.90;;
76708;SDS011;65638;44.498;0.166;2023-11-19T06:05:58;10.73;;;5.47;;
76708;SDS011;65638;44.498;0.166;2023-11-19T06:11:30;8.53;;;5.37;;
76708;SDS011;65638;44.498;0.166;2023-11-19T06:17:05;11.60;;;5.60;;
76708;SDS011;65638;44.498;0.166;2023-11-19T06:22:37;8.93;;;4.60;;
76708;SDS011;65638;44.498;0.166;2023-11-19T06:28:09;11.73;;;6.80;;
76708;SDS011;65638;44.498;0.166;2023-11-19T06:33:41;12.70;;;6.17;;
76708;SDS011;65638;44.498;0.166;2023-11-19T06:39:15;11.93;;;6.43;;
76708;SDS011;65638;44.498;0.166;2023-11-19T06:44:46;13.63;;;7.60;;
76708;SDS011;65638;44.498;0.166;2023-11-19T06:50:20;10.97;;;6.07;;
76708;SDS011;65638;44.498;0.166;2023-11-19T06:55:52;13.13;;;6.90;;
76708;SDS011;65638;44.498;0.166;2023-11-19T07:01:24;11.37;;;6.00;;
76708;SDS011;65638;44.498;0.166;2023-11-19T07:06:57;10.97;;;5.77;;
76708;SDS011;65638;44.498;0.166;2023-11-19T07:12:29;9.70;;;6.20;;
76708;SDS011;65638;44.498;0.166;2023-11-19T07:18:01;10.97;;;6.43;;
76708;SDS011;65638;44.498;0.166;2023-11-19T07:23:35;9.87;;;5.80;;
76708;SDS011;65638;44.498;0.166;2023-11-19T07:29:08;11.20;;;5.93;;
76708;SDS011;65638;44.498;0.166;2023-11-19T07:34:37;10.27;;;6.00;;
76708;SDS011;65638;44.498;0.166;2023-11-19T07:40:12;10.07;;;5.87;;
76708;SDS011;65638;44.498;0.166;2023-11-19T07:45:45;10.90;;;5.97;;
76708;SDS011;65638;44.498;0.166;2023-11-19T07:51:17;11.73;;;6.03;;
76708;SDS011;65638;44.498;0.166;2023-11-19T07:56:50;11.30;;;5.83;;
76708;SDS011;65638;44.498;0.166;2023-11-19T08:02:23;10.37;;;5.87;;
76708;SDS011;65638;44.498;0.166;2023-11-19T08:07:56;13.50;;;6.47;;
76708;SDS011;65638;44.498;0.166;2023-11-19T08:13:28;13.23;;;6.53;;
76708;SDS011;65638;44.498;0.166;2023-11-19T08:19:01;11.17;;;5.60;;
76708;SDS011;65638;44.498;0.166;2023-11-19T08:30:06;10.87;;;6.20;;
76708;SDS011;65638;44.498;0.166;2023-11-19T08:35:39;13.37;;;6.90;;
76708;SDS011;65638;44.498;0.166;2023-11-19T08:41:12;11.10;;;5.80;;
76708;SDS011;65638;44.498;0.166;2023-11-19T08:46:47;12.97;;;6.43;;
76708;SDS011;65638;44.498;0.166;2023-11-19T08:52:19;11.20;;;5.97;;
76708;SDS011;65638;44.498;0.166;2023-11-19T08:57:50;12.63;;;7.23;;
76708;SDS011;65638;44.498;0.166;2023-11-19T09:03:24;9.97;;;5.40;;
76708;SDS011;65638;44.498;0.166;2023-11-19T09:09:00;9.57;;;5.77;;
76708;SDS011;65638;44.498;0.166;2023-11-19T09:14:29;11.93;;;6.40;;
76708;SDS011;65638;44.498;0.166;2023-11-19T09:20:02;18.37;;;7.53;;
76708;SDS011;65638;44.498;0.166;2023-11-19T09:25:34;12.80;;;6.87;;
76708;SDS011;65638;44.498;0.166;2023-11-19T09:31:13;9.60;;;5.37;;
76708;SDS011;65638;44.498;0.166;2023-11-19T09:36:44;11.33;;;5.47;;
76708;SDS011;65638;44.498;0.166;2023-11-19T09:42:12;11.93;;;5.27;;
76708;SDS011;65638;44.498;0.166;2023-11-19T09:47:45;10.17;;;5.70;;
76708;SDS011;65638;44.498;0.166;2023-11-19T09:53:17;11.80;;;5.63;;
76708;SDS011;65638;44.498;0.166;2023-11-19T09:58:49;12.07;;;6.43;;
76708;SDS011;65638;44.498;0.166;2023-11-19T10:04:21;10.60;;;5.97;;
76708;SDS011;65638;44.498;0.166;2023-11-19T10:09:54;8.80;;;5.17;;
76708;SDS011;65638;44.498;0.166;2023-11-19T10:15:27;10.33;;;5.47;;
76708;SDS011;65638;44.498;0.166;2023-11-19T10:20:59;10.40;;;5.00;;
76708;SDS011;65638;44.498;0.166;2023-11-19T10:26:35;9.97;;;5.47;;
76708;SDS011;65638;44.498;0.166;2023-11-19T10:32:05;10.43;;;6.30;;
76708;SDS011;65638;44.498;0.166;2023-11-19T10:37:38;10.50;;;6.00;;
76708;SDS011;65638;44.498;0.166;2023-11-19T10:43:10;13.67;;;6.87;;
76708;SDS011;65638;44.498;0.166;2023-11-19T10:48:43;9.90;;;5.40;;
76708;SDS011;65638;44.498;0.166;2023-11-19T10:54:18;10.43;;;6.03;;
76708;SDS011;65638;44.498;0.166;2023-11-19T10:59:51;9.47;;;6.03;;
76708;SDS011;65638;44.498;0.166;2023-11-19T11:05:22;11.17;;;6.03;;
76708;SDS011;65638;44.498;0.166;2023-11-19T11:10:55;13.67;;;7.40;;
76708;SDS011;65638;44.498;0.166;2023-11-19T11:16:27;11.20;;;6.63;;
76708;SDS011;65638;44.498;0.166;2023-11-19T11:22:00;12.53;;;7.80;;
76708;SDS011;65638;44.498;0.166;2023-11-19T11:33:14;13.13;;;8.07;;
76708;SDS011;65638;44.498;0.166;2023-11-19T11:38:39;12.27;;;7.60;;
76708;SDS011;65638;44.498;0.166;2023-11-19T11:44:12;11.73;;;6.83;;
76708;SDS011;65638;44.498;0.166;2023-11-19T11:49:46;11.80;;;7.60;;
76708;SDS011;65638;44.498;0.166;2023-11-19T11:55:19;12.60;;;7.30;;
76708;SDS011;65638;44.498;0.166;2023-11-19T12:00:51;13.00;;;8.00;;
76708;SDS011;65638;44.498;0.166;2023-11-19T12:06:26;12.97;;;8.00;;
76708;SDS011;65638;44.498;0.166;2023-11-19T12:17:37;13.20;;;8.30;;
76708;SDS011;65638;44.498;0.166;2023-11-19T12:23:02;13.33;;;8.07;;
76708;SDS011;65638;44.498;0.166;2023-11-19T12:28:32;12.67;;;6.17;;
76708;SDS011;65638;44.498;0.166;2023-11-19T12:34:06;10.40;;;6.07;;
76708;SDS011;65638;44.498;0.166;2023-11-19T12:39:40;12.63;;;7.07;;
76708;SDS011;65638;44.498;0.166;2023-11-19T12:45:13;11.70;;;6.63;;
76708;SDS011;65638;44.498;0.166;2023-11-19T12:50:52;11.27;;;5.43;;
76708;SDS011;65638;44.498;0.166;2023-11-19T12:56:17;9.87;;;5.73;;
76708;SDS011;65638;44.498;0.166;2023-11-19T13:01:57;7.93;;;4.50;;
76708;SDS011;65638;44.498;0.166;2023-11-19T13:07:23;7.83;;;4.03;;
76708;SDS011;65638;44.498;0.166;2023-11-19T13:13:04;8.80;;;4.30;;
76708;SDS011;65638;44.498;0.166;2023-11-19T13:18:29;11.50;;;5.20;;
76708;SDS011;65638;44.498;0.166;2023-11-19T13:24:03;9.87;;;5.03;;
76708;SDS011;65638;44.498;0.166;2023-11-19T13:29:36;10.47;;;5.33;;
76708;SDS011;65638;44.498;0.166;2023-11-19T13:35:09;11.97;;;6.27;;
76708;SDS011;65638;44.498;0.166;2023-11-19T13:40:41;10.33;;;4.63;;
76708;SDS011;65638;44.498;0.166;2023-11-19T13:46:14;8.77;;;5.20;;
76708;SDS011;65638;44.498;0.166;2023-11-19T13:51:47;8.33;;;4.40;;
76708;SDS011;65638;44.498;0.166;2023-11-19T13:57:19;14.70;;;5.03;;
76708;SDS011;65638;44.498;0.166;2023-11-19T14:02:52;10.07;;;4.73;;
76708;SDS011;65638;44.498;0.166;2023-11-19T14:08:27;11.37;;;4.73;;
76708;SDS011;65638;44.498;0.166;2023-11-19T14:13:57;12.23;;;7.23;;
76708;SDS011;65638;44.498;0.166;2023-11-19T14:19:30;9.73;;;4.47;;
76708;SDS011;65638;44.498;0.166;2023-11-19T14:25:05;11.90;;;6.20;;
76708;SDS011;65638;44.498;0.166;2023-11-19T14:30:37;13.50;;;6.60;;
76708;SDS011;65638;44.498;0.166;2023-11-19T14:36:10;9.80;;;5.43;;
76708;SDS011;65638;44.498;0.166;2023-11-19T14:41:42;10.37;;;4.33;;
76708;SDS011;65638;44.498;0.166;2023-11-19T14:47:14;9.00;;;4.67;;
76708;SDS011;65638;44.498;0.166;2023-11-19T14:52:47;9.63;;;5.07;;
76708;SDS011;65638;44.498;0.166;2023-11-19T14:58:19;10.93;;;5.23;;
76708;SDS011;65638;44.498;0.166;2023-11-19T15:03:52;11.47;;;5.10;;
76708;SDS011;65638;44.498;0.166;2023-11-19T15:09:25;11.40;;;5.03;;
76708;SDS011;65638;44.498;0.166;2023-11-19T15:14:57;10.13;;;5.07;;
76708;SDS011;65638;44.498;0.166;2023-11-19T15:20:30;9.70;;;5.60;;
76708;SDS011;65638;44.498;0.166;2023-11-19T15:26:02;9.67;;;5.20;;
76708;SDS011;65638;44.498;0.166;2023-11-19T15:31:34;10.00;;;5.77;;
76708;SDS011;65638;44.498;0.166;2023-11-19T15:37:08;9.47;;;5.10;;
76708;SDS011;65638;44.498;0.166;2023-11-19T15:42:41;14.43;;;7.70;;
76708;SDS011;65638;44.498;0.166;2023-11-19T15:48:14;11.83;;;5.73;;
76708;SDS011;65638;44.498;0.166;2023-11-19T15:53:48;15.70;;;6.43;;
76708;SDS011;65638;44.498;0.166;2023-11-19T15:59:21;16.63;;;7.83;;
76708;SDS011;65638;44.498;0.166;2023-11-19T16:04:53;21.43;;;9.83;;
76708;SDS011;65638;44.498;0.166;2023-11-19T16:10:23;19.00;;;10.20;;
76708;SDS011;65638;44.498;0.166;2023-11-19T16:15:56;16.10;;;9.13;;
76708;SDS011;65638;44.498;0.166;2023-11-19T16:21:29;17.97;;;7.87;;
76708;SDS011;65638;44.498;0.166;2023-11-19T16:27:01;17.00;;;9.00;;
76708;SDS011;65638;44.498;0.166;2023-11-19T16:32:35;16.70;;;9.43;;
76708;SDS011;65638;44.498;0.166;2023-11-19T16:38:06;15.83;;;7.77;;
76708;SDS011;65638;44.498;0.166;2023-11-19T16:43:40;17.03;;;8.93;;
76708;SDS011;65638;44.498;0.166;2023-11-19T16:49:14;13.90;;;8.47;;
76708;SDS011;65638;44.498;0.166;2023-11-19T16:54:45;16.80;;;9.37;;
76708;SDS011;65638;44.498;0.166;2023-11-19T17:00:19;22.33;;;12.07;;
76708;SDS011;65638;44.498;0.166;2023-11-19T17:05:52;20.63;;;12.13;;
76708;SDS011;65638;44.498;0.166;2023-11-19T17:11:25;20.63;;;13.13;;
76708;SDS011;65638;44.498;0.166;2023-11-19T17:16:58;17.60;;;10.80;;
76708;SDS011;65638;44.498;0.166;2023-11-19T17:22:33;13.53;;;7.87;;
76708;SDS011;65638;44.498;0.166;2023-11-19T17:28:07;13.57;;;7.87;;
76708;SDS011;65638;44.498;0.166;2023-11-19T17:33:38;12.87;;;6.93;;
76708;SDS011;65638;44.498;0.166;2023-11-19T17:39:11;18.77;;;9.63;;
76708;SDS011;65638;44.498;0.166;2023-11-19T17:44:44;18.63;;;10.33;;
76708;SDS011;65638;44.498;0.166;2023-11-19T17:50:16;16.93;;;10.43;;
76708;SDS011;65638;44.498;0.166;2023-11-19T17:55:48;18.83;;;10.60;;
76708;SDS011;65638;44.498;0.166;2023-11-19T18:01:21;28.20;;;17.57;;
76708;SDS011;65638;44.498;0.166;2023-11-19T18:06:53;24.73;;;14.80;;
76708;SDS011;65638;44.498;0.166;2023-11-19T18:12:28;24.80;;;14.57;;
76708;SDS011;65638;44.498;0.166;2023-11-19T18:17:58;20.70;;;12.10;;
76708;SDS011;65638;44.498;0.166;2023-11-19T18:23:31;22.00;;;12.10;;
76708;SDS011;65638;44.498;0.166;2023-11-19T18:29:03;24.87;;;11.73;;
76708;SDS011;65638;44.498;0.166;2023-11-19T18:34:34;18.63;;;10.43;;
76708;SDS011;65638;44.498;0.166;2023-11-19T18:40:09;17.90;;;10.37;;
76708;SDS011;65638;44.498;0.166;2023-11-19T18:45:38;21.37;;;10.87;;
76708;SDS011;65638;44.498;0.166;2023-11-19T18:51:14;15.10;;;10.20;;
76708;SDS011;65638;44.498;0.166;2023-11-19T18:56:42;16.07;;;10.20;;
76708;SDS011;65638;44.498;0.166;2023-11-19T19:02:16;21.63;;;14.50;;
76708;SDS011;65638;44.498;0.166;2023-11-19T19:07:49;20.67;;;12.03;;
76708;SDS011;65638;44.498;0.166;2023-11-19T19:13:22;18.43;;;12.10;;
76708;SDS011;65638;44.498;0.166;2023-11-19T19:18:55;21.77;;;12.97;;
76708;SDS011;65638;44.498;0.166;2023-11-19T19:24:27;24.17;;;12.70;;
76708;SDS011;65638;44.498;0.166;2023-11-19T19:30:00;20.00;;;11.60;;
76708;SDS011;65638;44.498;0.166;2023-11-19T19:35:32;22.40;;;12.13;;
76708;SDS011;65638;44.498;0.166;2023-11-19T19:41:05;29.43;;;13.03;;
76708;SDS011;65638;44.498;0.166;2023-11-19T19:46:37;20.00;;;11.60;;
76708;SDS011;65638;44.498;0.166;2023-11-19T19:52:10;21.07;;;11.77;;
76708;SDS011;65638;44.498;0.166;2023-11-19T19:57:43;24.93;;;11.40;;
76708;SDS011;65638;44.498;0.166;2023-11-19T20:03:17;25.77;;;12.93;;
76708;SDS011;65638;44.498;0.166;2023-11-19T20:08:50;21.77;;;12.60;;
76708;SDS011;65638;44.498;0.166;2023-11-19T20:14:25;23.33;;;11.77;;
76708;SDS011;65638;44.498;0.166;2023-11-19T20:19:56;26.30;;;13.50;;
76708;SDS011;65638;44.498;0.166;2023-11-19T20:25:30;70.27;;;20.70;;
76708;SDS011;65638;44.498;0.166;2023-11-19T20:31:02;49.00;;;19.57;;
76708;SDS011;65638;44.498;0.166;2023-11-19T20:36:34;51.27;;;21.77;;
76708;SDS011;65638;44.498;0.166;2023-11-19T20:42:07;54.77;;;22.03;;
76708;SDS011;65638;44.498;0.166;2023-11-19T20:47:39;33.20;;;15.03;;
76708;SDS011;65638;44.498;0.166;2023-11-19T20:53:10;29.53;;;13.73;;
76708;SDS011;65638;44.498;0.166;2023-11-19T20:58:43;29.57;;;17.37;;
76708;SDS011;65638;44.498;0.166;2023-11-19T21:04:16;22.30;;;14.33;;
76708;SDS011;65638;44.498;0.166;2023-11-19T21:15:20;25.90;;;13.57;;
76708;SDS011;65638;44.498;0.166;2023-11-19T21:20:51;23.83;;;13.33;;
76708;SDS011;65638;44.498;0.166;2023-11-19T21:26:25;21.80;;;12.17;;
76708;SDS011;65638;44.498;0.166;2023-11-19T21:31:58;21.30;;;12.03;;
76708;SDS011;65638;44.498;0.166;2023-11-19T21:37:30;21.30;;;13.07;;
76708;SDS011;65638;44.498;0.166;2023-11-19T21:43:03;26.10;;;14.00;;
76708;SDS011;65638;44.498;0.166;2023-11-19T21:48:37;25.80;;;13.90;;
76708;SDS011;65638;44.498;0.166;2023-11-19T21:54:08;26.40;;;14.63;;
76708;SDS011;65638;44.498;0.166;2023-11-19T21:59:40;23.50;;;12.27;;
76708;SDS011;65638;44.498;0.166;2023-11-19T22:05:14;18.23;;;11.63;;
76708;SDS011;65638;44.498;0.166;2023-11-19T22:10:45;20.87;;;12.67;;
76708;SDS011;65638;44.498;0.166;2023-11-19T22:16:18;19.63;;;11.13;;
76708;SDS011;65638;44.498;0.166;2023-11-19T22:21:50;19.33;;;11.30;;
76708;SDS011;65638;44.498;0.166;2023-11-19T22:27:23;15.63;;;9.27;;
76708;SDS011;65638;44.498;0.166;2023-11-19T22:32:56;15.57;;;8.80;;
76708;SDS011;65638;44.498;0.166;2023-11-19T22:38:30;18.70;;;9.07;;
76708;SDS011;65638;44.498;0.166;2023-11-19T22:44:03;18.90;;;9.63;;
76708;SDS011;65638;44.498;0.166;2023-11-19T22:49:35;14.53;;;7.83;;
76708;SDS011;65638;44.498;0.166;2023-11-19T22:55:08;15.80;;;8.93;;
76708;SDS011;65638;44.498;0.166;2023-11-19T23:00:41;20.23;;;9.20;;
76708;SDS011;65638;44.498;0.166;2023-11-19T23:06:13;20.83;;;11.00;;
76708;SDS011;65638;44.498;0.166;2023-11-19T23:11:45;16.83;;;10.47;;
76708;SDS011;65638;44.498;0.166;2023-11-19T23:17:18;21.53;;;9.53;;
76708;SDS011;65638;44.498;0.166;2023-11-19T23:22:51;19.47;;;9.63;;
76708;SDS011;65638;44.498;0.166;2023-11-19T23:28:24;14.77;;;9.17;;
76708;SDS011;65638;44.498;0.166;2023-11-19T23:33:59;19.53;;;11.37;;
76708;SDS011;65638;44.498;0.166;2023-11-19T23:39:30;19.23;;;10.33;;
76708;SDS011;65638;44.498;0.166;2023-11-19T23:45:02;17.77;;;11.00;;
76708;SDS011;65638;44.498;0.166;2023-11-19T23:50:36;19.90;;;10.40;;
76708;SDS011;65638;44.498;0.166;2023-11-19T23:56:08;18.70;;;10.37;;
